Ronja Harvester — LAWU — position and weather

sailwx.info

Track history (hours):
 
Tides and Currents Weather Stations Pressure Air Temp Water Temp Dewpoint Dewpoint Depression Visibility Wind Speed Wind Dir Waves Ship Positions

Ronja Harvester

Last reported at 2018-Feb-24 18:00 UTC. Time now 2018-Feb-24 18:17 UTC.
Position N 70°42' E 023°31'.

Length 68 m; draft 5.8 m.

Type: Ship. MMSI: 258799000.

Date/timePositionNaut miles runAvg speedWind from/ knotsBaromVisibWave heightAir tempDewpointWater temp
2018-Feb-24 18:00N 70°42' E 023°31'611.6
2018-Feb-24 17:30N 70°38' E 023°18'611.6
2018-Feb-24 17:00N 70°34' E 023°06'611.4
2018-Feb-24 16:30N 70°30' E 022°53'510.8
2018-Feb-24 16:00N 70°29' E 022°37'5 9.6
2018-Feb-24 15:30N 70°28' E 022°23'510.5
2018-Feb-24 15:00N 70°26' E 022°08'4 8.9
2018-Feb-24 14:29N 70°25' E 021°55'5 9.3
2018-Feb-24 14:00N 70°24' E 021°42'5 9.6
2018-Feb-24 13:30N 70°20' E 021°32'5 9.8
2018-Feb-24 13:00N 70°17' E 021°22'5 9.7
2018-Feb-24 12:30N 70°14' E 021°11'510.0
2018-Feb-24 12:00N 70°09' E 021°07'4 8.6
2018-Feb-24 11:30N 70°05' E 021°04'3 6.6
2018-Feb-24 10:59N 70°02' E 020°59'0 0.2
2018-Feb-24 10:30N 70°02' E 020°59'0 0.0
2018-Feb-24 10:00N 70°02' E 020°59'0 0.0
2018-Feb-24 09:30N 70°02' E 020°59'0 0.0
2018-Feb-24 09:00N 70°02' E 020°59'2 4.1
2018-Feb-24 08:30N 70°04' E 020°59'510.2
2018-Feb-24 08:00N 70°02' E 020°45'5 9.9
2018-Feb-24 07:30N 70°01' E 020°31'5 9.2
2018-Feb-24 07:00N 69°60' E 020°18'5 9.9
2018-Feb-24 06:30N 69°57' E 020°06'5 9.8
2018-Feb-24 06:00N 69°54' E 019°55'5 9.9
2018-Feb-24 05:30N 69°51' E 019°44'5 9.7
2018-Feb-24 05:00N 69°49' E 019°31'5 9.8
2018-Feb-24 04:30N 69°47' E 019°18'5 9.9
2018-Feb-24 03:59N 69°45' E 019°04'5 9.7
2018-Feb-24 03:30N 69°40' E 019°01'4 8.2
2018-Feb-24 03:00N 69°37' E 018°55'510.6
2018-Feb-24 02:30N 69°33' E 018°44'510.2
2018-Feb-24 02:00N 69°32' E 018°30'5 9.6
2018-Feb-24 01:30N 69°31' E 018°16'4 8.5
2018-Feb-24 01:00N 69°32' E 018°05'4 8.7
2018-Feb-24 00:30N 69°35' E 017°56'4 8.5
2018-Feb-24 00:00N 69°38' E 017°48'5 9.3
2018-Feb-23 23:30N 69°39' E 017°34'4 8.5
2018-Feb-23 23:00N 69°36' E 017°27'5 9.4
2018-Feb-23 22:30N 69°31' E 017°31'3 5.1
2018-Feb-23 22:00N 69°29' E 017°35'0 0.0
2018-Feb-23 21:27N 69°29' E 017°35'0 0.0
2018-Feb-23 20:59N 69°29' E 017°35'0 0.0
2018-Feb-23 20:27N 69°29' E 017°35'0 0.0
2018-Feb-23 19:54N 69°29' E 017°35'0 0.0
2018-Feb-23 19:29N 69°29' E 017°35'0 0.0
2018-Feb-23 18:58N 69°29' E 017°35'1 2.3
2018-Feb-23 18:30N 69°30' E 017°33'1 2.5
2018-Feb-23 17:59N 69°30' E 017°30'4 7.6
2018-Feb-23 17:30N 69°33' E 017°27'510.1
2018-Feb-23 17:00N 69°38' E 017°30'510.5
2018-Feb-23 16:30N 69°38' E 017°45'611.3
2018-Feb-23 16:00N 69°34' E 017°57'611.7
2018-Feb-23 15:30N 69°31' E 018°10'611.0
2018-Feb-23 15:00N 69°32' E 018°25'510.9
2018-Feb-23 14:30N 69°33' E 018°40'5 9.2
2018-Feb-23 14:00N 69°35' E 018°51'510.1
2018-Feb-23 13:30N 69°40' E 018°59'611.0
2018-Feb-23 13:00N 69°45' E 019°04'510.8
2018-Feb-23 12:30N 69°48' E 019°18'611.4
2018-Feb-23 11:59N 69°49' E 019°34'511.1
2018-Feb-23 11:30N 69°52' E 019°48'611.2
2018-Feb-23 11:00N 69°56' E 019°60'611.4
2018-Feb-23 10:30N 69°59' E 020°13'611.0
2018-Feb-23 10:00N 70°01' E 020°29'611.3
2018-Feb-23 09:30N 70°02' E 020°44'611.2
2018-Feb-23 09:00N 70°04' E 021°00'2 3.5
2018-Feb-23 08:28N 70°02' E 020°59'0 0.3
2018-Feb-23 07:58N 70°02' E 020°59'0 0.0
2018-Feb-23 07:28N 70°02' E 020°59'0 0.0
2018-Feb-23 06:52N 70°02' E 020°59'0 0.0
2018-Feb-23 06:28N 70°02' E 020°59'0 0.0
2018-Feb-23 05:58N 70°02' E 020°59'0 0.0
2018-Feb-23 05:28N 70°02' E 020°59'0 0.0
2018-Feb-23 04:58N 70°02' E 020°59'0 0.0
2018-Feb-23 04:28N 70°02' E 020°59'0 0.0
2018-Feb-23 03:58N 70°02' E 020°59'0 0.0
2018-Feb-23 03:28N 70°02' E 020°59'0 0.0
2018-Feb-23 02:58N 70°02' E 020°59'0 0.0
2018-Feb-23 02:28N 70°02' E 020°59'0 0.0
2018-Feb-23 01:58N 70°02' E 020°59'0 0.0
2018-Feb-23 01:28N 70°02' E 020°59'0 0.0
2018-Feb-23 00:55N 70°02' E 020°59'0 0.0
2018-Feb-23 00:25N 70°02' E 020°59'0 0.0
2018-Feb-22 23:58N 70°02' E 020°59'0 0.0
2018-Feb-22 23:28N 70°02' E 020°59'0 0.0
2018-Feb-22 22:55N 70°02' E 020°59'0 0.0
2018-Feb-22 22:25N 70°02' E 020°59'0 0.0
2018-Feb-22 21:58N 70°02' E 020°59'0 0.0
2018-Feb-22 21:28N 70°02' E 020°59'0 0.0
2018-Feb-22 20:58N 70°02' E 020°59'0 0.0
2018-Feb-22 20:25N 70°02' E 020°59'0 0.0
2018-Feb-22 19:58N 70°02' E 020°59'0 0.0
2018-Feb-22 19:28N 70°02' E 020°59'0 0.0
2018-Feb-22 18:55N 70°02' E 020°59'0 0.0
2018-Feb-22 18:28N 70°02' E 020°59'0 0.0
2018-Feb-22 17:58N 70°02' E 020°59'0 0.0
2018-Feb-22 17:28N 70°02' E 020°59'0 0.0
2018-Feb-22 16:58N 70°02' E 020°59'0 0.0
2018-Feb-22 16:28N 70°02' E 020°59'0 0.0
2018-Feb-22 15:58N 70°02' E 020°59'0 0.0
2018-Feb-22 15:25N 70°02' E 020°59'0 0.0
2018-Feb-22 14:58N 70°02' E 020°59'0 0.0
2018-Feb-22 14:25N 70°02' E 020°59'0 0.0
2018-Feb-22 13:55N 70°02' E 020°59'0 0.0
2018-Feb-22 13:28N 70°02' E 020°59'0 0.0
2018-Feb-22 12:58N 70°02' E 020°59'0 0.0
2018-Feb-22 12:28N 70°02' E 020°59'0 0.0
2018-Feb-22 11:55N 70°02' E 020°59'0 0.0
2018-Feb-22 11:28N 70°02' E 020°59'0 0.0
2018-Feb-22 10:58N 70°02' E 020°59'0 0.0
2018-Feb-22 10:28N 70°02' E 020°59'0 0.0
2018-Feb-22 09:55N 70°02' E 020°59'0 0.0
2018-Feb-22 09:28N 70°02' E 020°59'0 0.0
2018-Feb-22 08:58N 70°02' E 020°59'0 0.0
2018-Feb-22 08:28N 70°02' E 020°59'0 0.0
2018-Feb-22 07:58N 70°02' E 020°59'0 0.0
2018-Feb-22 07:28N 70°02' E 020°59'0 0.0
2018-Feb-22 06:49N 70°02' E 020°59'0 0.0
2018-Feb-22 06:28N 70°02' E 020°59'0 0.0
2018-Feb-22 05:55N 70°02' E 020°59'0 0.0
2018-Feb-22 05:25N 70°02' E 020°59'0 0.0
2018-Feb-22 04:55N 70°02' E 020°59'0 0.0
2018-Feb-22 04:28N 70°02' E 020°59'0 0.0
2018-Feb-22 03:58N 70°02' E 020°59'0 0.0
2018-Feb-22 03:28N 70°02' E 020°59'0 0.0
2018-Feb-22 02:58N 70°02' E 020°59'0 0.0
2018-Feb-22 02:28N 70°02' E 020°59'0 0.0
2018-Feb-22 01:58N 70°02' E 020°59'0 0.0
2018-Feb-22 01:28N 70°02' E 020°59'0 0.0
2018-Feb-22 00:58N 70°02' E 020°59'0 0.0
2018-Feb-22 00:28N 70°02' E 020°59'0 0.0
2018-Feb-21 23:58N 70°02' E 020°59'0 0.0
2018-Feb-21 23:25N 70°02' E 020°59'0 0.0
2018-Feb-21 22:58N 70°02' E 020°59'0 0.0
2018-Feb-21 22:28N 70°02' E 020°59'0 0.0
2018-Feb-21 21:58N 70°02' E 020°59'0 0.0
2018-Feb-21 21:28N 70°02' E 020°59'0 0.0
2018-Feb-21 20:58N 70°02' E 020°59'0 0.0
2018-Feb-21 20:28N 70°02' E 020°59'0 0.0
2018-Feb-21 19:58N 70°02' E 020°59'0 0.0
2018-Feb-21 19:28N 70°02' E 020°59'0 0.0
2018-Feb-21 18:58N 70°02' E 020°59'0 0.0
2018-Feb-21 18:28N 70°02' E 020°59'0 0.0
2018-Feb-21 17:58N 70°02' E 020°59'0 0.0
2018-Feb-21 17:28N 70°02' E 020°59'0 0.0
2018-Feb-21 16:58N 70°02' E 020°59'0 0.0
2018-Feb-21 16:28N 70°02' E 020°59'0 0.0
2018-Feb-21 15:58N 70°02' E 020°59'0 0.0
2018-Feb-21 15:28N 70°02' E 020°59'0 0.0
2018-Feb-21 14:58N 70°02' E 020°59'0 0.0
2018-Feb-21 14:28N 70°02' E 020°59'0 0.0
2018-Feb-21 13:58N 70°02' E 020°59'0 0.0
2018-Feb-21 13:28N 70°02' E 020°59'0 0.0
2018-Feb-21 12:58N 70°02' E 020°59'0 0.0
2018-Feb-21 12:28N 70°02' E 020°59'0 0.0
2018-Feb-21 12:00N 70°02' E 020°59'0 0.0
2018-Feb-21 11:30N 70°02' E 020°59'0 0.0
2018-Feb-21 11:00N 70°02' E 020°59'0 0.0
2018-Feb-21 10:30N 70°02' E 020°59'0 0.0
2018-Feb-21 10:00N 70°02' E 020°59'0 0.0
2018-Feb-21 09:30N 70°02' E 020°59'0 0.0
2018-Feb-21 09:00N 70°02' E 020°59'0 0.0
2018-Feb-21 08:29N 70°02' E 020°59'0 0.0
2018-Feb-21 08:00N 70°02' E 020°59'0 0.0
2018-Feb-21 07:30N 70°02' E 020°59'0 0.0
2018-Feb-21 06:58N 70°02' E 020°59'0 0.4
2018-Feb-21 06:30N 70°02' E 020°59'0 0.0
2018-Feb-21 05:59N 70°02' E 020°59'0 0.0
2018-Feb-21 05:30N 70°02' E 020°59'2 3.9
2018-Feb-21 04:59N 70°04' E 020°59'4 8.8
2018-Feb-21 04:30N 70°03' E 020°47'4 8.8
2018-Feb-21 03:59N 70°01' E 020°35'4 8.3
2018-Feb-21 03:30N 69°60' E 020°24'4 8.4
2018-Feb-21 03:00N 69°58' E 020°12'4 8.4
2018-Feb-21 02:29N 69°56' E 020°02'4 8.2
2018-Feb-21 02:00N 69°53' E 019°53'4 8.4
2018-Feb-21 01:30N 69°51' E 019°44'4 8.3
2018-Feb-21 01:00N 69°49' E 019°32'4 8.4
2018-Feb-21 00:29N 69°48' E 019°20'4 8.4
2018-Feb-21 00:00N 69°46' E 019°09'4 7.9
2018-Feb-20 23:30N 69°43' E 019°03'4 8.8
2018-Feb-20 22:59N 69°39' E 018°58'3 6.7
2018-Feb-20 22:30N 69°36' E 018°53'3 5.6
2018-Feb-20 22:00N 69°34' E 018°47'4 8.5
2018-Feb-20 21:30N 69°33' E 018°36'4 7.5
2018-Feb-20 21:00N 69°31' E 018°26'3 7.0
2018-Feb-20 20:30N 69°30' E 018°17'4 7.0
2018-Feb-20 20:00N 69°28' E 018°08'4 7.2
2018-Feb-20 19:30N 69°25' E 018°07'4 7.1
2018-Feb-20 19:00N 69°21' E 018°06'4 7.2
2018-Feb-20 18:30N 69°19' E 017°58'3 7.0
2018-Feb-20 18:00N 69°15' E 017°59'3 5.9
2018-Feb-20 17:29N 69°12' E 018°01'3 5.8
2018-Feb-20 17:00N 69°10' E 017°56'3 6.9
2018-Feb-20 16:30N 69°08' E 017°47'4 7.3
2018-Feb-20 16:00N 69°07' E 017°38'4 7.0
2018-Feb-20 15:30N 69°06' E 017°28'3 6.7
2018-Feb-20 15:00N 69°04' E 017°21'4 7.2
2018-Feb-20 14:29N 69°01' E 017°16'3 7.0
2018-Feb-20 14:00N 68°59' E 017°07'4 7.0
2018-Feb-20 13:30N 68°58' E 016°58'4 7.0
2018-Feb-20 13:00N 68°56' E 016°49'3 5.6
2018-Feb-20 12:30N 68°56' E 016°42'0 0.2
2018-Feb-20 12:00N 68°56' E 016°42'0 0.0
2018-Feb-20 11:30N 68°56' E 016°42'0 0.0
2018-Feb-20 11:00N 68°56' E 016°42'0 0.0
2018-Feb-20 10:30N 68°56' E 016°42'0 0.0
2018-Feb-20 10:00N 68°56' E 016°42'0 0.0
2018-Feb-20 09:29N 68°56' E 016°42'0 0.0
2018-Feb-20 09:00N 68°56' E 016°42'2 3.2
2018-Feb-20 08:30N 68°56' E 016°47'3 5.9
2018-Feb-20 08:00N 68°57' E 016°54'4 7.1
2018-Feb-20 07:30N 68°58' E 017°03'3 5.8
2018-Feb-20 07:00N 68°59' E 017°10'3 5.5
2018-Feb-20 06:30N 69°01' E 017°16'3 5.5
2018-Feb-20 06:00N 69°04' E 017°20'3 5.0
2018-Feb-20 05:30N 69°06' E 017°24'2 4.4
2018-Feb-20 05:00N 69°06' E 017°30'2 4.6
2018-Feb-20 04:30N 69°07' E 017°36'2 4.8
2018-Feb-20 03:59N 69°08' E 017°42'2 5.1
2018-Feb-20 03:30N 69°09' E 017°49'3 5.8
2018-Feb-20 03:00N 69°10' E 017°56'3 5.4
2018-Feb-20 02:30N 69°12' E 018°01'3 5.7
2018-Feb-20 02:00N 69°15' E 017°58'4 8.0
2018-Feb-20 01:30N 69°19' E 017°58'4 8.2
2018-Feb-20 01:00N 69°22' E 018°06'4 8.0
2018-Feb-20 00:29N 69°26' E 018°07'4 7.5
2018-Feb-20 00:00N 69°30' E 018°11'4 8.7
2018-Feb-19 23:30N 69°31' E 018°22'4 8.3
2018-Feb-19 23:00N 69°32' E 018°33'4 7.8
2018-Feb-19 22:28N 69°33' E 018°45'3 6.7
2018-Feb-19 21:59N 69°36' E 018°52'4 7.7
2018-Feb-19 21:30N 69°39' E 018°58'0 0.7
2018-Feb-19 21:00N 69°39' E 018°59'0 0.0
2018-Feb-19 20:30N 69°39' E 018°59'0 0.0
2018-Feb-19 20:00N 69°39' E 018°59'0 0.0
2018-Feb-19 19:30N 69°39' E 018°59'0 0.0
2018-Feb-19 19:00N 69°39' E 018°59'0 0.0
2018-Feb-19 18:30N 69°39' E 018°59'0 0.0
2018-Feb-19 18:00N 69°39' E 018°59'0 0.0
2018-Feb-19 17:30N 69°39' E 018°59'0 0.0
2018-Feb-19 17:00N 69°39' E 018°59'0 0.0
2018-Feb-19 16:30N 69°39' E 018°59'0 0.0
2018-Feb-19 16:00N 69°39' E 018°59'0 0.0
2018-Feb-19 15:30N 69°39' E 018°59'0 0.0
2018-Feb-19 15:00N 69°39' E 018°59'0 0.0
2018-Feb-19 14:29N 69°39' E 018°59'0 0.0
2018-Feb-19 13:59N 69°39' E 018°59'0 0.0
2018-Feb-19 13:30N 69°39' E 018°59'0 0.0
2018-Feb-19 12:59N 69°39' E 018°59'0 0.0
2018-Feb-19 12:30N 69°39' E 018°59'0 0.0
2018-Feb-19 12:00N 69°39' E 018°59'0 0.0
2018-Feb-19 11:30N 69°39' E 018°59'0 0.0
2018-Feb-19 10:59N 69°39' E 018°59'0 0.0
2018-Feb-19 10:30N 69°39' E 018°59'0 0.0
2018-Feb-19 09:59N 69°39' E 018°59'0 0.0
2018-Feb-19 09:28N 69°39' E 018°59'3 6.5
2018-Feb-19 09:00N 69°42' E 019°02'510.1
2018-Feb-19 08:30N 69°46' E 019°07'510.5
2018-Feb-19 07:59N 69°48' E 019°22'510.7
2018-Feb-19 07:30N 69°50' E 019°36'510.6
2018-Feb-19 07:00N 69°53' E 019°50'510.5
2018-Feb-19 06:30N 69°56' E 020°01'510.4
2018-Feb-19 06:00N 69°59' E 020°13'510.7
2018-Feb-19 05:30N 70°01' E 020°28'510.5
2018-Feb-19 05:00N 70°02' E 020°43'5 9.6
2018-Feb-19 04:30N 70°04' E 020°56'2 4.2
2018-Feb-19 04:00N 70°02' E 020°60'0 0.3
2018-Feb-19 03:29N 70°02' E 020°59'0 0.0
2018-Feb-19 03:00N 70°02' E 020°59'0 0.0
2018-Feb-19 02:30N 70°02' E 020°59'0 0.0
2018-Feb-19 02:00N 70°02' E 020°59'2 4.0
2018-Feb-19 01:30N 70°04' E 020°59'4 8.0
2018-Feb-19 01:00N 70°03' E 020°48'4 8.1
2018-Feb-19 00:30N 70°01' E 020°37'4 8.2
2018-Feb-19 00:00N 70°00' E 020°25'4 7.7
2018-Feb-18 23:30N 69°59' E 020°15'4 8.0
2018-Feb-18 23:00N 69°57' E 020°06'4 8.0
2018-Feb-18 22:30N 69°54' E 019°57'4 8.0
2018-Feb-18 22:00N 69°52' E 019°48'4 7.8
2018-Feb-18 21:30N 69°50' E 019°38'4 8.0
2018-Feb-18 20:59N 69°49' E 019°26'4 8.1
2018-Feb-18 20:30N 69°47' E 019°16'4 8.6
2018-Feb-18 20:00N 69°45' E 019°05'4 7.4
2018-Feb-18 19:30N 69°42' E 019°02'1 2.4
2018-Feb-18 18:59N 69°40' E 019°01'510.3
2018-Feb-18 18:30N 69°36' E 018°53'4 7.9
2018-Feb-18 17:58N 69°33' E 018°44'4 7.6
2018-Feb-18 17:29N 69°32' E 018°34'5 9.3
2018-Feb-18 17:00N 69°31' E 018°22'5 9.6
2018-Feb-18 16:30N 69°29' E 018°09'5 9.5
2018-Feb-18 16:00N 69°24' E 018°06'5 9.6
2018-Feb-18 15:29N 69°20' E 018°02'4 8.9
2018-Feb-18 14:59N 69°15' E 017°58'4 8.4
2018-Feb-18 14:28N 69°11' E 018°01'4 9.3
2018-Feb-18 14:00N 69°09' E 017°51'5 9.4
2018-Feb-18 13:29N 69°07' E 017°38'5 9.7
2018-Feb-18 13:00N 69°06' E 017°25'5 9.4
2018-Feb-18 12:30N 69°02' E 017°18'5 9.5
2018-Feb-18 11:58N 68°59' E 017°06'5 9.5
2018-Feb-18 11:29N 68°57' E 016°55'5 9.5
2018-Feb-18 11:00N 68°56' E 016°42'0 0.7
2018-Feb-18 10:30N 68°56' E 016°42'0 0.0
2018-Feb-18 10:00N 68°56' E 016°42'0 0.0
2018-Feb-18 09:30N 68°56' E 016°42'0 0.0
2018-Feb-18 09:00N 68°56' E 016°42'0 0.0
2018-Feb-18 08:30N 68°56' E 016°42'0 0.0
2018-Feb-18 08:00N 68°56' E 016°42'1 2.7
2018-Feb-18 07:30N 68°56' E 016°46'3 5.3
2018-Feb-18 07:00N 68°57' E 016°52'3 6.4
2018-Feb-18 06:30N 68°58' E 017°00'3 6.7
2018-Feb-18 06:00N 68°59' E 017°09'3 6.4
2018-Feb-18 05:30N 69°01' E 017°17'3 6.7
2018-Feb-18 05:00N 69°04' E 017°21'3 6.1
2018-Feb-18 04:30N 69°06' E 017°27'3 6.5
2018-Feb-18 04:00N 69°07' E 017°36'3 6.9
2018-Feb-18 03:29N 69°08' E 017°45'4 7.2
2018-Feb-18 03:00N 69°10' E 017°54'3 7.0
2018-Feb-18 02:30N 69°12' E 018°01'3 6.4
2018-Feb-18 02:00N 69°15' E 017°58'4 7.9
2018-Feb-18 01:30N 69°19' E 017°58'4 8.2
2018-Feb-18 01:00N 69°22' E 018°06'4 8.4
2018-Feb-18 00:30N 69°26' E 018°07'4 7.5
2018-Feb-17 23:59N 69°30' E 018°12'5 9.3
2018-Feb-17 23:30N 69°31' E 018°24'4 8.9
2018-Feb-17 23:00N 69°33' E 018°36'4 7.1
2018-Feb-17 22:30N 69°34' E 018°46'4 9.1
2018-Feb-17 22:00N 69°37' E 018°54'2 4.6
2018-Feb-17 21:30N 69°39' E 018°58'0 0.0
2018-Feb-17 21:00N 69°39' E 018°58'0 0.0
2018-Feb-17 20:28N 69°39' E 018°58'0 0.0
2018-Feb-17 20:00N 69°39' E 018°58'0 0.0
2018-Feb-17 19:30N 69°39' E 018°58'0 0.0
2018-Feb-17 19:00N 69°39' E 018°58'0 0.0
2018-Feb-17 18:30N 69°39' E 018°58'0 0.0
2018-Feb-17 18:00N 69°39' E 018°58'0 0.0
2018-Feb-17 17:29N 69°39' E 018°58'0 0.0
2018-Feb-17 17:00N 69°39' E 018°58'0 0.0
2018-Feb-17 16:30N 69°39' E 018°58'0 0.0
2018-Feb-17 16:00N 69°39' E 018°58'0 0.0
2018-Feb-17 15:29N 69°39' E 018°58'0 0.0
2018-Feb-17 15:00N 69°39' E 018°58'0 0.0
2018-Feb-17 14:29N 69°39' E 018°58'0 0.0
2018-Feb-17 14:00N 69°39' E 018°58'0 0.0
2018-Feb-17 13:30N 69°39' E 018°58'0 0.0
2018-Feb-17 13:00N 69°39' E 018°58'0 0.0
2018-Feb-17 12:29N 69°39' E 018°58'0 0.0
2018-Feb-17 12:00N 69°39' E 018°58'0 0.0
2018-Feb-17 11:28N 69°39' E 018°58'0 0.0
2018-Feb-17 11:00N 69°39' E 018°58'0 0.0
2018-Feb-17 10:30N 69°39' E 018°58'0 0.0
2018-Feb-17 10:00N 69°39' E 018°58'0 0.0
2018-Feb-17 09:30N 69°39' E 018°58'0 0.0
2018-Feb-17 09:00N 69°39' E 018°58'0 0.0
2018-Feb-17 08:30N 69°39' E 018°58'0 0.0
2018-Feb-17 07:59N 69°39' E 018°58'0 0.0
2018-Feb-17 07:30N 69°39' E 018°58'0 0.0
2018-Feb-17 07:00N 69°39' E 018°58'0 0.0
2018-Feb-17 06:30N 69°39' E 018°58'0 0.0
2018-Feb-17 06:00N 69°39' E 018°58'0 0.0
2018-Feb-17 05:30N 69°39' E 018°58'0 0.0
2018-Feb-17 05:00N 69°39' E 018°58'0 0.0
2018-Feb-17 04:30N 69°39' E 018°58'0 0.0
2018-Feb-17 04:00N 69°39' E 018°58'0 0.0
2018-Feb-17 03:30N 69°39' E 018°58'0 0.0
2018-Feb-17 03:00N 69°39' E 018°58'0 0.0
2018-Feb-17 02:30N 69°39' E 018°58'0 0.0
2018-Feb-17 01:59N 69°39' E 018°58'0 0.0
2018-Feb-17 01:30N 69°39' E 018°58'0 0.0
2018-Feb-17 00:59N 69°39' E 018°58'0 0.0
2018-Feb-17 00:30N 69°39' E 018°58'0 0.0
2018-Feb-17 00:00N 69°39' E 018°58'0 0.0
2018-Feb-16 23:30N 69°39' E 018°58'0 0.0
2018-Feb-16 23:00N 69°39' E 018°58'0 0.0
2018-Feb-16 22:29N 69°39' E 018°58'0 0.0
2018-Feb-16 21:59N 69°39' E 018°58'0 0.0
2018-Feb-16 21:30N 69°39' E 018°58'0 0.0
2018-Feb-16 21:00N 69°39' E 018°58'0 0.0
2018-Feb-16 20:30N 69°39' E 018°58'0 0.0
2018-Feb-16 20:00N 69°39' E 018°58'0 0.0
2018-Feb-16 19:30N 69°39' E 018°58'0 0.0
2018-Feb-16 19:00N 69°39' E 018°58'0 0.0
2018-Feb-16 18:30N 69°39' E 018°58'0 0.0
2018-Feb-16 18:00N 69°39' E 018°58'0 0.0
2018-Feb-16 17:29N 69°39' E 018°58'0 0.0
2018-Feb-16 17:00N 69°39' E 018°58'0 0.0
2018-Feb-16 16:30N 69°39' E 018°58'0 0.0
2018-Feb-16 16:00N 69°39' E 018°58'0 0.0
2018-Feb-16 15:30N 69°39' E 018°58'0 0.0
2018-Feb-16 15:00N 69°39' E 018°58'0 0.0
2018-Feb-16 14:30N 69°39' E 018°58'0 0.0
2018-Feb-16 13:59N 69°39' E 018°58'0 0.0
2018-Feb-16 13:30N 69°39' E 018°58'0 0.0
2018-Feb-16 13:00N 69°39' E 018°58'0 0.0
2018-Feb-16 12:30N 69°39' E 018°58'0 0.0
2018-Feb-16 11:59N 69°39' E 018°58'0 0.0
2018-Feb-16 11:30N 69°39' E 018°58'0 0.0
2018-Feb-16 11:00N 69°39' E 018°58'0 0.0
2018-Feb-16 10:30N 69°39' E 018°58'0 0.0
2018-Feb-16 10:00N 69°39' E 018°58'0 0.0
2018-Feb-16 09:29N 69°39' E 018°58'0 0.0
2018-Feb-16 09:00N 69°39' E 018°58'0 0.0
2018-Feb-16 08:29N 69°39' E 018°58'0 0.0
2018-Feb-16 08:00N 69°39' E 018°58'0 0.0
2018-Feb-16 07:29N 69°39' E 018°58'0 0.0
2018-Feb-16 07:00N 69°39' E 018°58'0 0.0
2018-Feb-16 06:30N 69°39' E 018°58'0 0.0
2018-Feb-16 06:00N 69°39' E 018°58'0 0.0
2018-Feb-16 05:29N 69°39' E 018°58'0 0.0
2018-Feb-16 05:00N 69°39' E 018°58'0 0.0
2018-Feb-16 04:30N 69°39' E 018°58'0 0.0
2018-Feb-16 04:00N 69°39' E 018°58'0 0.0
2018-Feb-16 03:30N 69°39' E 018°58'0 0.0
2018-Feb-16 03:00N 69°39' E 018°58'0 0.0
2018-Feb-16 02:30N 69°39' E 018°58'0 0.0
2018-Feb-16 02:00N 69°39' E 018°58'0 0.0
2018-Feb-16 01:30N 69°39' E 018°58'0 0.0
2018-Feb-16 01:00N 69°39' E 018°58'0 0.0
2018-Feb-16 00:29N 69°39' E 018°58'0 0.0
2018-Feb-16 00:00N 69°39' E 018°58'0 0.0
2018-Feb-15 23:30N 69°39' E 018°58'0 0.0
2018-Feb-15 23:00N 69°39' E 018°58'0 0.0
2018-Feb-15 22:30N 69°39' E 018°58'0 0.0
2018-Feb-15 22:00N 69°39' E 018°58'0 0.0
2018-Feb-15 21:30N 69°39' E 018°58'0 0.0
2018-Feb-15 21:00N 69°39' E 018°58'0 0.0
2018-Feb-15 20:28N 69°39' E 018°58'2 3.4
2018-Feb-15 20:00N 69°40' E 019°01'4 7.1
2018-Feb-15 19:30N 69°44' E 019°03'2 3.1
2018-Feb-15 19:00N 69°45' E 019°04'2 4.1
2018-Feb-15 18:30N 69°47' E 019°08'2 4.3
2018-Feb-15 18:00N 69°47' E 019°14'2 4.2
2018-Feb-15 17:30N 69°48' E 019°20'2 3.6
2018-Feb-15 16:59N 69°49' E 019°25'1 2.8
2018-Feb-15 16:30N 69°49' E 019°28'2 3.3
2018-Feb-15 15:59N 69°49' E 019°33'1 2.9
2018-Feb-15 15:30N 69°50' E 019°37'2 3.3
2018-Feb-15 15:00N 69°51' E 019°41'2 3.6
2018-Feb-15 14:28N 69°52' E 019°46'2 3.3
2018-Feb-15 14:00N 69°53' E 019°49'2 3.4
2018-Feb-15 13:30N 69°54' E 019°53'2 3.2
2018-Feb-15 12:59N 69°55' E 019°57'2 3.3
2018-Feb-15 12:29N 69°56' E 020°01'2 4.5
2018-Feb-15 12:00N 69°57' E 020°06'2 4.5
2018-Feb-15 11:30N 69°58' E 020°11'3 6.2
2018-Feb-15 11:00N 69°60' E 020°19'3 6.4
2018-Feb-15 10:30N 70°01' E 020°28'2 4.7
2018-Feb-15 09:59N 70°01' E 020°35'3 5.7
2018-Feb-15 09:29N 70°02' E 020°43'3 6.1
2018-Feb-15 09:00N 70°03' E 020°51'3 6.8
2018-Feb-15 08:30N 70°03' E 021°01'1 3.0
2018-Feb-15 08:00N 70°02' E 020°59'0 0.0
2018-Feb-15 07:30N 70°02' E 020°59'0 0.0
2018-Feb-15 06:59N 70°02' E 020°59'0 0.0
2018-Feb-15 06:30N 70°02' E 020°59'2 3.5
2018-Feb-15 06:00N 70°04' E 021°01'4 8.2
2018-Feb-15 05:30N 70°03' E 020°49'4 8.6
2018-Feb-15 05:00N 70°02' E 020°37'5 8.9
2018-Feb-15 04:28N 70°00' E 020°24'4 8.8
2018-Feb-15 03:58N 69°59' E 020°12'4 8.9
2018-Feb-15 03:30N 69°56' E 020°02'4 9.0
2018-Feb-15 03:00N 69°53' E 019°52'4 8.7
2018-Feb-15 02:30N 69°50' E 019°42'4 8.7
2018-Feb-15 02:00N 69°49' E 019°30'4 8.8
2018-Feb-15 01:30N 69°48' E 019°18'5 8.9
2018-Feb-15 01:00N 69°46' E 019°06'4 8.4
2018-Feb-15 00:30N 69°42' E 019°03'4 8.3
2018-Feb-15 00:00N 69°38' E 018°57'4 8.6
2018-Feb-14 23:29N 69°35' E 018°50'4 9.2
2018-Feb-14 23:00N 69°33' E 018°38'4 8.7
2018-Feb-14 22:30N 69°31' E 018°26'4 8.5
2018-Feb-14 21:59N 69°30' E 018°14'4 7.7
2018-Feb-14 21:30N 69°27' E 018°07'4 8.4
2018-Feb-14 21:00N 69°23' E 018°05'4 7.6
2018-Feb-14 20:30N 69°20' E 018°01'4 7.7
2018-Feb-14 20:00N 69°16' E 017°58'4 7.5
2018-Feb-14 19:29N 69°12' E 018°01'4 7.6
2018-Feb-14 19:00N 69°09' E 017°54'4 8.3
2018-Feb-14 18:30N 69°08' E 017°43'4 8.3
2018-Feb-14 18:00N 69°07' E 017°32'  
Track history (hours):
 
Tides and Currents Weather Stations Pressure Air Temp Water Temp Dewpoint Dewpoint Depression Visibility Wind Speed Wind Dir Waves Ship Positions

Ronja Harvester

Last reported at 2018-Feb-24 18:00 UTC. Time now 2018-Feb-24 18:17 UTC.
Position N 70°42' E 023°31'.

Length 68 m; draft 5.8 m.

Type: Ship. MMSI: 258799000.

Date/timePositionNaut miles runAvg speedWind from/ knotsBaromVisibWave heightAir tempDewpointWater temp
2018-Feb-24 18:00N 70°42' E 023°31'611.6
2018-Feb-24 17:30N 70°38' E 023°18'611.6
2018-Feb-24 17:00N 70°34' E 023°06'611.4
2018-Feb-24 16:30N 70°30' E 022°53'510.8
2018-Feb-24 16:00N 70°29' E 022°37'5 9.6
2018-Feb-24 15:30N 70°28' E 022°23'510.5
2018-Feb-24 15:00N 70°26' E 022°08'4 8.9
2018-Feb-24 14:29N 70°25' E 021°55'5 9.3
2018-Feb-24 14:00N 70°24' E 021°42'5 9.6
2018-Feb-24 13:30N 70°20' E 021°32'5 9.8
2018-Feb-24 13:00N 70°17' E 021°22'5 9.7
2018-Feb-24 12:30N 70°14' E 021°11'510.0
2018-Feb-24 12:00N 70°09' E 021°07'4 8.6
2018-Feb-24 11:30N 70°05' E 021°04'3 6.6
2018-Feb-24 10:59N 70°02' E 020°59'0 0.2
2018-Feb-24 10:30N 70°02' E 020°59'0 0.0
2018-Feb-24 10:00N 70°02' E 020°59'0 0.0
2018-Feb-24 09:30N 70°02' E 020°59'0 0.0
2018-Feb-24 09:00N 70°02' E 020°59'2 4.1
2018-Feb-24 08:30N 70°04' E 020°59'510.2
2018-Feb-24 08:00N 70°02' E 020°45'5 9.9
2018-Feb-24 07:30N 70°01' E 020°31'5 9.2
2018-Feb-24 07:00N 69°60' E 020°18'5 9.9
2018-Feb-24 06:30N 69°57' E 020°06'5 9.8
2018-Feb-24 06:00N 69°54' E 019°55'5 9.9
2018-Feb-24 05:30N 69°51' E 019°44'5 9.7
2018-Feb-24 05:00N 69°49' E 019°31'5 9.8
2018-Feb-24 04:30N 69°47' E 019°18'5 9.9
2018-Feb-24 03:59N 69°45' E 019°04'5 9.7
2018-Feb-24 03:30N 69°40' E 019°01'4 8.2
2018-Feb-24 03:00N 69°37' E 018°55'510.6
2018-Feb-24 02:30N 69°33' E 018°44'510.2
2018-Feb-24 02:00N 69°32' E 018°30'5 9.6
2018-Feb-24 01:30N 69°31' E 018°16'4 8.5
2018-Feb-24 01:00N 69°32' E 018°05'4 8.7
2018-Feb-24 00:30N 69°35' E 017°56'4 8.5
2018-Feb-24 00:00N 69°38' E 017°48'5 9.3
2018-Feb-23 23:30N 69°39' E 017°34'4 8.5
2018-Feb-23 23:00N 69°36' E 017°27'5 9.4
2018-Feb-23 22:30N 69°31' E 017°31'3 5.1
2018-Feb-23 22:00N 69°29' E 017°35'0 0.0
2018-Feb-23 21:27N 69°29' E 017°35'0 0.0
2018-Feb-23 20:59N 69°29' E 017°35'0 0.0
2018-Feb-23 20:27N 69°29' E 017°35'0 0.0
2018-Feb-23 19:54N 69°29' E 017°35'0 0.0
2018-Feb-23 19:29N 69°29' E 017°35'0 0.0
2018-Feb-23 18:58N 69°29' E 017°35'1 2.3
2018-Feb-23 18:30N 69°30' E 017°33'1 2.5
2018-Feb-23 17:59N 69°30' E 017°30'4 7.6
2018-Feb-23 17:30N 69°33' E 017°27'510.1
2018-Feb-23 17:00N 69°38' E 017°30'510.5
2018-Feb-23 16:30N 69°38' E 017°45'611.3
2018-Feb-23 16:00N 69°34' E 017°57'611.7
2018-Feb-23 15:30N 69°31' E 018°10'611.0
2018-Feb-23 15:00N 69°32' E 018°25'510.9
2018-Feb-23 14:30N 69°33' E 018°40'5 9.2
2018-Feb-23 14:00N 69°35' E 018°51'510.1
2018-Feb-23 13:30N 69°40' E 018°59'611.0
2018-Feb-23 13:00N 69°45' E 019°04'510.8
2018-Feb-23 12:30N 69°48' E 019°18'611.4
2018-Feb-23 11:59N 69°49' E 019°34'511.1
2018-Feb-23 11:30N 69°52' E 019°48'611.2
2018-Feb-23 11:00N 69°56' E 019°60'611.4
2018-Feb-23 10:30N 69°59' E 020°13'611.0
2018-Feb-23 10:00N 70°01' E 020°29'611.3
2018-Feb-23 09:30N 70°02' E 020°44'611.2
2018-Feb-23 09:00N 70°04' E 021°00'2 3.5
2018-Feb-23 08:28N 70°02' E 020°59'0 0.3
2018-Feb-23 07:58N 70°02' E 020°59'0 0.0
2018-Feb-23 07:28N 70°02' E 020°59'0 0.0
2018-Feb-23 06:52N 70°02' E 020°59'0 0.0
2018-Feb-23 06:28N 70°02' E 020°59'0 0.0
2018-Feb-23 05:58N 70°02' E 020°59'0 0.0
2018-Feb-23 05:28N 70°02' E 020°59'0 0.0
2018-Feb-23 04:58N 70°02' E 020°59'0 0.0
2018-Feb-23 04:28N 70°02' E 020°59'0 0.0
2018-Feb-23 03:58N 70°02' E 020°59'0 0.0
2018-Feb-23 03:28N 70°02' E 020°59'0 0.0
2018-Feb-23 02:58N 70°02' E 020°59'0 0.0
2018-Feb-23 02:28N 70°02' E 020°59'0 0.0
2018-Feb-23 01:58N 70°02' E 020°59'0 0.0
2018-Feb-23 01:28N 70°02' E 020°59'0 0.0
2018-Feb-23 00:55N 70°02' E 020°59'0 0.0
2018-Feb-23 00:25N 70°02' E 020°59'0 0.0
2018-Feb-22 23:58N 70°02' E 020°59'0 0.0
2018-Feb-22 23:28N 70°02' E 020°59'0 0.0
2018-Feb-22 22:55N 70°02' E 020°59'0 0.0
2018-Feb-22 22:25N 70°02' E 020°59'0 0.0
2018-Feb-22 21:58N 70°02' E 020°59'0 0.0
2018-Feb-22 21:28N 70°02' E 020°59'0 0.0
2018-Feb-22 20:58N 70°02' E 020°59'0 0.0
2018-Feb-22 20:25N 70°02' E 020°59'0 0.0
2018-Feb-22 19:58N 70°02' E 020°59'0 0.0
2018-Feb-22 19:28N 70°02' E 020°59'0 0.0
2018-Feb-22 18:55N 70°02' E 020°59'0 0.0
2018-Feb-22 18:28N 70°02' E 020°59'0 0.0
2018-Feb-22 17:58N 70°02' E 020°59'0 0.0
2018-Feb-22 17:28N 70°02' E 020°59'0 0.0
2018-Feb-22 16:58N 70°02' E 020°59'0 0.0
2018-Feb-22 16:28N 70°02' E 020°59'0 0.0
2018-Feb-22 15:58N 70°02' E 020°59'0 0.0
2018-Feb-22 15:25N 70°02' E 020°59'0 0.0
2018-Feb-22 14:58N 70°02' E 020°59'0 0.0
2018-Feb-22 14:25N 70°02' E 020°59'0 0.0
2018-Feb-22 13:55N 70°02' E 020°59'0 0.0
2018-Feb-22 13:28N 70°02' E 020°59'0 0.0
2018-Feb-22 12:58N 70°02' E 020°59'0 0.0
2018-Feb-22 12:28N 70°02' E 020°59'0 0.0
2018-Feb-22 11:55N 70°02' E 020°59'0 0.0
2018-Feb-22 11:28N 70°02' E 020°59'0 0.0
2018-Feb-22 10:58N 70°02' E 020°59'0 0.0
2018-Feb-22 10:28N 70°02' E 020°59'0 0.0
2018-Feb-22 09:55N 70°02' E 020°59'0 0.0
2018-Feb-22 09:28N 70°02' E 020°59'0 0.0
2018-Feb-22 08:58N 70°02' E 020°59'0 0.0
2018-Feb-22 08:28N 70°02' E 020°59'0 0.0
2018-Feb-22 07:58N 70°02' E 020°59'0 0.0
2018-Feb-22 07:28N 70°02' E 020°59'0 0.0
2018-Feb-22 06:49N 70°02' E 020°59'0 0.0
2018-Feb-22 06:28N 70°02' E 020°59'0 0.0
2018-Feb-22 05:55N 70°02' E 020°59'0 0.0
2018-Feb-22 05:25N 70°02' E 020°59'0 0.0
2018-Feb-22 04:55N 70°02' E 020°59'0 0.0
2018-Feb-22 04:28N 70°02' E 020°59'0 0.0
2018-Feb-22 03:58N 70°02' E 020°59'0 0.0
2018-Feb-22 03:28N 70°02' E 020°59'0 0.0
2018-Feb-22 02:58N 70°02' E 020°59'0 0.0
2018-Feb-22 02:28N 70°02' E 020°59'0 0.0
2018-Feb-22 01:58N 70°02' E 020°59'0 0.0
2018-Feb-22 01:28N 70°02' E 020°59'0 0.0
2018-Feb-22 00:58N 70°02' E 020°59'0 0.0
2018-Feb-22 00:28N 70°02' E 020°59'0 0.0
2018-Feb-21 23:58N 70°02' E 020°59'0 0.0
2018-Feb-21 23:25N 70°02' E 020°59'0 0.0
2018-Feb-21 22:58N 70°02' E 020°59'0 0.0
2018-Feb-21 22:28N 70°02' E 020°59'0 0.0
2018-Feb-21 21:58N 70°02' E 020°59'0 0.0
2018-Feb-21 21:28N 70°02' E 020°59'0 0.0
2018-Feb-21 20:58N 70°02' E 020°59'0 0.0
2018-Feb-21 20:28N 70°02' E 020°59'0 0.0
2018-Feb-21 19:58N 70°02' E 020°59'0 0.0
2018-Feb-21 19:28N 70°02' E 020°59'0 0.0
2018-Feb-21 18:58N 70°02' E 020°59'0 0.0
2018-Feb-21 18:28N 70°02' E 020°59'0 0.0
2018-Feb-21 17:58N 70°02' E 020°59'0 0.0
2018-Feb-21 17:28N 70°02' E 020°59'0 0.0
2018-Feb-21 16:58N 70°02' E 020°59'0 0.0
2018-Feb-21 16:28N 70°02' E 020°59'0 0.0
2018-Feb-21 15:58N 70°02' E 020°59'0 0.0
2018-Feb-21 15:28N 70°02' E 020°59'0 0.0
2018-Feb-21 14:58N 70°02' E 020°59'0 0.0
2018-Feb-21 14:28N 70°02' E 020°59'0 0.0
2018-Feb-21 13:58N 70°02' E 020°59'0 0.0
2018-Feb-21 13:28N 70°02' E 020°59'0 0.0
2018-Feb-21 12:58N 70°02' E 020°59'0 0.0
2018-Feb-21 12:28N 70°02' E 020°59'0 0.0
2018-Feb-21 12:00N 70°02' E 020°59'0 0.0
2018-Feb-21 11:30N 70°02' E 020°59'0 0.0
2018-Feb-21 11:00N 70°02' E 020°59'0 0.0
2018-Feb-21 10:30N 70°02' E 020°59'0 0.0
2018-Feb-21 10:00N 70°02' E 020°59'0 0.0
2018-Feb-21 09:30N 70°02' E 020°59'0 0.0
2018-Feb-21 09:00N 70°02' E 020°59'0 0.0
2018-Feb-21 08:29N 70°02' E 020°59'0 0.0
2018-Feb-21 08:00N 70°02' E 020°59'0 0.0
2018-Feb-21 07:30N 70°02' E 020°59'0 0.0
2018-Feb-21 06:58N 70°02' E 020°59'0 0.4
2018-Feb-21 06:30N 70°02' E 020°59'0 0.0
2018-Feb-21 05:59N 70°02' E 020°59'0 0.0
2018-Feb-21 05:30N 70°02' E 020°59'2 3.9
2018-Feb-21 04:59N 70°04' E 020°59'4 8.8
2018-Feb-21 04:30N 70°03' E 020°47'4 8.8
2018-Feb-21 03:59N 70°01' E 020°35'4 8.3
2018-Feb-21 03:30N 69°60' E 020°24'4 8.4
2018-Feb-21 03:00N 69°58' E 020°12'4 8.4
2018-Feb-21 02:29N 69°56' E 020°02'4 8.2
2018-Feb-21 02:00N 69°53' E 019°53'4 8.4
2018-Feb-21 01:30N 69°51' E 019°44'4 8.3
2018-Feb-21 01:00N 69°49' E 019°32'4 8.4
2018-Feb-21 00:29N 69°48' E 019°20'4 8.4
2018-Feb-21 00:00N 69°46' E 019°09'4 7.9
2018-Feb-20 23:30N 69°43' E 019°03'4 8.8
2018-Feb-20 22:59N 69°39' E 018°58'3 6.7
2018-Feb-20 22:30N 69°36' E 018°53'3 5.6
2018-Feb-20 22:00N 69°34' E 018°47'4 8.5
2018-Feb-20 21:30N 69°33' E 018°36'4 7.5
2018-Feb-20 21:00N 69°31' E 018°26'3 7.0
2018-Feb-20 20:30N 69°30' E 018°17'4 7.0
2018-Feb-20 20:00N 69°28' E 018°08'4 7.2
2018-Feb-20 19:30N 69°25' E 018°07'4 7.1
2018-Feb-20 19:00N 69°21' E 018°06'4 7.2
2018-Feb-20 18:30N 69°19' E 017°58'3 7.0
2018-Feb-20 18:00N 69°15' E 017°59'3 5.9
2018-Feb-20 17:29N 69°12' E 018°01'3 5.8
2018-Feb-20 17:00N 69°10' E 017°56'3 6.9
2018-Feb-20 16:30N 69°08' E 017°47'4 7.3
2018-Feb-20 16:00N 69°07' E 017°38'4 7.0
2018-Feb-20 15:30N 69°06' E 017°28'3 6.7
2018-Feb-20 15:00N 69°04' E 017°21'4 7.2
2018-Feb-20 14:29N 69°01' E 017°16'3 7.0
2018-Feb-20 14:00N 68°59' E 017°07'4 7.0
2018-Feb-20 13:30N 68°58' E 016°58'4 7.0
2018-Feb-20 13:00N 68°56' E 016°49'3 5.6
2018-Feb-20 12:30N 68°56' E 016°42'0 0.2
2018-Feb-20 12:00N 68°56' E 016°42'0 0.0
2018-Feb-20 11:30N 68°56' E 016°42'0 0.0
2018-Feb-20 11:00N 68°56' E 016°42'0 0.0
2018-Feb-20 10:30N 68°56' E 016°42'0 0.0
2018-Feb-20 10:00N 68°56' E 016°42'0 0.0
2018-Feb-20 09:29N 68°56' E 016°42'0 0.0
2018-Feb-20 09:00N 68°56' E 016°42'2 3.2
2018-Feb-20 08:30N 68°56' E 016°47'3 5.9
2018-Feb-20 08:00N 68°57' E 016°54'4 7.1
2018-Feb-20 07:30N 68°58' E 017°03'3 5.8
2018-Feb-20 07:00N 68°59' E 017°10'3 5.5
2018-Feb-20 06:30N 69°01' E 017°16'3 5.5
2018-Feb-20 06:00N 69°04' E 017°20'3 5.0
2018-Feb-20 05:30N 69°06' E 017°24'2 4.4
2018-Feb-20 05:00N 69°06' E 017°30'2 4.6
2018-Feb-20 04:30N 69°07' E 017°36'2 4.8
2018-Feb-20 03:59N 69°08' E 017°42'2 5.1
2018-Feb-20 03:30N 69°09' E 017°49'3 5.8
2018-Feb-20 03:00N 69°10' E 017°56'3 5.4
2018-Feb-20 02:30N 69°12' E 018°01'3 5.7
2018-Feb-20 02:00N 69°15' E 017°58'4 8.0
2018-Feb-20 01:30N 69°19' E 017°58'4 8.2
2018-Feb-20 01:00N 69°22' E 018°06'4 8.0
2018-Feb-20 00:29N 69°26' E 018°07'4 7.5
2018-Feb-20 00:00N 69°30' E 018°11'4 8.7
2018-Feb-19 23:30N 69°31' E 018°22'4 8.3
2018-Feb-19 23:00N 69°32' E 018°33'4 7.8
2018-Feb-19 22:28N 69°33' E 018°45'3 6.7
2018-Feb-19 21:59N 69°36' E 018°52'4 7.7
2018-Feb-19 21:30N 69°39' E 018°58'0 0.7
2018-Feb-19 21:00N 69°39' E 018°59'0 0.0
2018-Feb-19 20:30N 69°39' E 018°59'0 0.0
2018-Feb-19 20:00N 69°39' E 018°59'0 0.0
2018-Feb-19 19:30N 69°39' E 018°59'0 0.0
2018-Feb-19 19:00N 69°39' E 018°59'0 0.0
2018-Feb-19 18:30N 69°39' E 018°59'0 0.0
2018-Feb-19 18:00N 69°39' E 018°59'0 0.0
2018-Feb-19 17:30N 69°39' E 018°59'0 0.0
2018-Feb-19 17:00N 69°39' E 018°59'0 0.0
2018-Feb-19 16:30N 69°39' E 018°59'0 0.0
2018-Feb-19 16:00N 69°39' E 018°59'0 0.0
2018-Feb-19 15:30N 69°39' E 018°59'0 0.0
2018-Feb-19 15:00N 69°39' E 018°59'0 0.0
2018-Feb-19 14:29N 69°39' E 018°59'0 0.0
2018-Feb-19 13:59N 69°39' E 018°59'0 0.0
2018-Feb-19 13:30N 69°39' E 018°59'0 0.0
2018-Feb-19 12:59N 69°39' E 018°59'0 0.0
2018-Feb-19 12:30N 69°39' E 018°59'0 0.0
2018-Feb-19 12:00N 69°39' E 018°59'0 0.0
2018-Feb-19 11:30N 69°39' E 018°59'0 0.0
2018-Feb-19 10:59N 69°39' E 018°59'0 0.0
2018-Feb-19 10:30N 69°39' E 018°59'0 0.0
2018-Feb-19 09:59N 69°39' E 018°59'0 0.0
2018-Feb-19 09:28N 69°39' E 018°59'3 6.5
2018-Feb-19 09:00N 69°42' E 019°02'510.1
2018-Feb-19 08:30N 69°46' E 019°07'510.5
2018-Feb-19 07:59N 69°48' E 019°22'510.7
2018-Feb-19 07:30N 69°50' E 019°36'510.6
2018-Feb-19 07:00N 69°53' E 019°50'510.5
2018-Feb-19 06:30N 69°56' E 020°01'510.4
2018-Feb-19 06:00N 69°59' E 020°13'510.7
2018-Feb-19 05:30N 70°01' E 020°28'510.5
2018-Feb-19 05:00N 70°02' E 020°43'5 9.6
2018-Feb-19 04:30N 70°04' E 020°56'2 4.2
2018-Feb-19 04:00N 70°02' E 020°60'0 0.3
2018-Feb-19 03:29N 70°02' E 020°59'0 0.0
2018-Feb-19 03:00N 70°02' E 020°59'0 0.0
2018-Feb-19 02:30N 70°02' E 020°59'0 0.0
2018-Feb-19 02:00N 70°02' E 020°59'2 4.0
2018-Feb-19 01:30N 70°04' E 020°59'4 8.0
2018-Feb-19 01:00N 70°03' E 020°48'4 8.1
2018-Feb-19 00:30N 70°01' E 020°37'4 8.2
2018-Feb-19 00:00N 70°00' E 020°25'4 7.7
2018-Feb-18 23:30N 69°59' E 020°15'4 8.0
2018-Feb-18 23:00N 69°57' E 020°06'4 8.0
2018-Feb-18 22:30N 69°54' E 019°57'4 8.0
2018-Feb-18 22:00N 69°52' E 019°48'4 7.8
2018-Feb-18 21:30N 69°50' E 019°38'4 8.0
2018-Feb-18 20:59N 69°49' E 019°26'4 8.1
2018-Feb-18 20:30N 69°47' E 019°16'4 8.6
2018-Feb-18 20:00N 69°45' E 019°05'4 7.4
2018-Feb-18 19:30N 69°42' E 019°02'1 2.4
2018-Feb-18 18:59N 69°40' E 019°01'510.3
2018-Feb-18 18:30N 69°36' E 018°53'4 7.9
2018-Feb-18 17:58N 69°33' E 018°44'4 7.6
2018-Feb-18 17:29N 69°32' E 018°34'5 9.3
2018-Feb-18 17:00N 69°31' E 018°22'5 9.6
2018-Feb-18 16:30N 69°29' E 018°09'5 9.5
2018-Feb-18 16:00N 69°24' E 018°06'5 9.6
2018-Feb-18 15:29N 69°20' E 018°02'4 8.9
2018-Feb-18 14:59N 69°15' E 017°58'4 8.4
2018-Feb-18 14:28N 69°11' E 018°01'4 9.3
2018-Feb-18 14:00N 69°09' E 017°51'5 9.4
2018-Feb-18 13:29N 69°07' E 017°38'5 9.7
2018-Feb-18 13:00N 69°06' E 017°25'5 9.4
2018-Feb-18 12:30N 69°02' E 017°18'5 9.5
2018-Feb-18 11:58N 68°59' E 017°06'5 9.5
2018-Feb-18 11:29N 68°57' E 016°55'5 9.5
2018-Feb-18 11:00N 68°56' E 016°42'0 0.7
2018-Feb-18 10:30N 68°56' E 016°42'0 0.0
2018-Feb-18 10:00N 68°56' E 016°42'0 0.0
2018-Feb-18 09:30N 68°56' E 016°42'0 0.0
2018-Feb-18 09:00N 68°56' E 016°42'0 0.0
2018-Feb-18 08:30N 68°56' E 016°42'0 0.0
2018-Feb-18 08:00N 68°56' E 016°42'1 2.7
2018-Feb-18 07:30N 68°56' E 016°46'3 5.3
2018-Feb-18 07:00N 68°57' E 016°52'3 6.4
2018-Feb-18 06:30N 68°58' E 017°00'3 6.7
2018-Feb-18 06:00N 68°59' E 017°09'3 6.4
2018-Feb-18 05:30N 69°01' E 017°17'3 6.7
2018-Feb-18 05:00N 69°04' E 017°21'3 6.1
2018-Feb-18 04:30N 69°06' E 017°27'3 6.5
2018-Feb-18 04:00N 69°07' E 017°36'3 6.9
2018-Feb-18 03:29N 69°08' E 017°45'4 7.2
2018-Feb-18 03:00N 69°10' E 017°54'3 7.0
2018-Feb-18 02:30N 69°12' E 018°01'3 6.4
2018-Feb-18 02:00N 69°15' E 017°58'4 7.9
2018-Feb-18 01:30N 69°19' E 017°58'4 8.2
2018-Feb-18 01:00N 69°22' E 018°06'4 8.4
2018-Feb-18 00:30N 69°26' E 018°07'4 7.5
2018-Feb-17 23:59N 69°30' E 018°12'5 9.3
2018-Feb-17 23:30N 69°31' E 018°24'4 8.9
2018-Feb-17 23:00N 69°33' E 018°36'4 7.1
2018-Feb-17 22:30N 69°34' E 018°46'4 9.1
2018-Feb-17 22:00N 69°37' E 018°54'2 4.6
2018-Feb-17 21:30N 69°39' E 018°58'0 0.0
2018-Feb-17 21:00N 69°39' E 018°58'0 0.0
2018-Feb-17 20:28N 69°39' E 018°58'0 0.0
2018-Feb-17 20:00N 69°39' E 018°58'0 0.0
2018-Feb-17 19:30N 69°39' E 018°58'0 0.0
2018-Feb-17 19:00N 69°39' E 018°58'0 0.0
2018-Feb-17 18:30N 69°39' E 018°58'0 0.0
2018-Feb-17 18:00N 69°39' E 018°58'0 0.0
2018-Feb-17 17:29N 69°39' E 018°58'0 0.0
2018-Feb-17 17:00N 69°39' E 018°58'0 0.0
2018-Feb-17 16:30N 69°39' E 018°58'0 0.0
2018-Feb-17 16:00N 69°39' E 018°58'0 0.0
2018-Feb-17 15:29N 69°39' E 018°58'0 0.0
2018-Feb-17 15:00N 69°39' E 018°58'0 0.0
2018-Feb-17 14:29N 69°39' E 018°58'0 0.0
2018-Feb-17 14:00N 69°39' E 018°58'0 0.0
2018-Feb-17 13:30N 69°39' E 018°58'0 0.0
2018-Feb-17 13:00N 69°39' E 018°58'0 0.0
2018-Feb-17 12:29N 69°39' E 018°58'0 0.0
2018-Feb-17 12:00N 69°39' E 018°58'0 0.0
2018-Feb-17 11:28N 69°39' E 018°58'0 0.0
2018-Feb-17 11:00N 69°39' E 018°58'0 0.0
2018-Feb-17 10:30N 69°39' E 018°58'0 0.0
2018-Feb-17 10:00N 69°39' E 018°58'0 0.0
2018-Feb-17 09:30N 69°39' E 018°58'0 0.0
2018-Feb-17 09:00N 69°39' E 018°58'0 0.0
2018-Feb-17 08:30N 69°39' E 018°58'0 0.0
2018-Feb-17 07:59N 69°39' E 018°58'0 0.0
2018-Feb-17 07:30N 69°39' E 018°58'0 0.0
2018-Feb-17 07:00N 69°39' E 018°58'0 0.0
2018-Feb-17 06:30N 69°39' E 018°58'0 0.0
2018-Feb-17 06:00N 69°39' E 018°58'0 0.0
2018-Feb-17 05:30N 69°39' E 018°58'0 0.0
2018-Feb-17 05:00N 69°39' E 018°58'0 0.0
2018-Feb-17 04:30N 69°39' E 018°58'0 0.0
2018-Feb-17 04:00N 69°39' E 018°58'0 0.0
2018-Feb-17 03:30N 69°39' E 018°58'0 0.0
2018-Feb-17 03:00N 69°39' E 018°58'0 0.0
2018-Feb-17 02:30N 69°39' E 018°58'0 0.0
2018-Feb-17 01:59N 69°39' E 018°58'0 0.0
2018-Feb-17 01:30N 69°39' E 018°58'0 0.0
2018-Feb-17 00:59N 69°39' E 018°58'0 0.0
2018-Feb-17 00:30N 69°39' E 018°58'0 0.0
2018-Feb-17 00:00N 69°39' E 018°58'0 0.0
2018-Feb-16 23:30N 69°39' E 018°58'0 0.0
2018-Feb-16 23:00N 69°39' E 018°58'0 0.0
2018-Feb-16 22:29N 69°39' E 018°58'0 0.0
2018-Feb-16 21:59N 69°39' E 018°58'0 0.0
2018-Feb-16 21:30N 69°39' E 018°58'0 0.0
2018-Feb-16 21:00N 69°39' E 018°58'0 0.0
2018-Feb-16 20:30N 69°39' E 018°58'0 0.0
2018-Feb-16 20:00N 69°39' E 018°58'0 0.0
2018-Feb-16 19:30N 69°39' E 018°58'0 0.0
2018-Feb-16 19:00N 69°39' E 018°58'0 0.0
2018-Feb-16 18:30N 69°39' E 018°58'0 0.0
2018-Feb-16 18:00N 69°39' E 018°58'0 0.0
2018-Feb-16 17:29N 69°39' E 018°58'0 0.0
2018-Feb-16 17:00N 69°39' E 018°58'0 0.0
2018-Feb-16 16:30N 69°39' E 018°58'0 0.0
2018-Feb-16 16:00N 69°39' E 018°58'0 0.0
2018-Feb-16 15:30N 69°39' E 018°58'0 0.0
2018-Feb-16 15:00N 69°39' E 018°58'0 0.0
2018-Feb-16 14:30N 69°39' E 018°58'0 0.0
2018-Feb-16 13:59N 69°39' E 018°58'0 0.0
2018-Feb-16 13:30N 69°39' E 018°58'0 0.0
2018-Feb-16 13:00N 69°39' E 018°58'0 0.0
2018-Feb-16 12:30N 69°39' E 018°58'0 0.0
2018-Feb-16 11:59N 69°39' E 018°58'0 0.0
2018-Feb-16 11:30N 69°39' E 018°58'0 0.0
2018-Feb-16 11:00N 69°39' E 018°58'0 0.0
2018-Feb-16 10:30N 69°39' E 018°58'0 0.0
2018-Feb-16 10:00N 69°39' E 018°58'0 0.0
2018-Feb-16 09:29N 69°39' E 018°58'0 0.0
2018-Feb-16 09:00N 69°39' E 018°58'0 0.0
2018-Feb-16 08:29N 69°39' E 018°58'0 0.0
2018-Feb-16 08:00N 69°39' E 018°58'0 0.0
2018-Feb-16 07:29N 69°39' E 018°58'0 0.0
2018-Feb-16 07:00N 69°39' E 018°58'0 0.0
2018-Feb-16 06:30N 69°39' E 018°58'0 0.0
2018-Feb-16 06:00N 69°39' E 018°58'0 0.0
2018-Feb-16 05:29N 69°39' E 018°58'0 0.0
2018-Feb-16 05:00N 69°39' E 018°58'0 0.0
2018-Feb-16 04:30N 69°39' E 018°58'0 0.0
2018-Feb-16 04:00N 69°39' E 018°58'0 0.0
2018-Feb-16 03:30N 69°39' E 018°58'0 0.0
2018-Feb-16 03:00N 69°39' E 018°58'0 0.0
2018-Feb-16 02:30N 69°39' E 018°58'0 0.0
2018-Feb-16 02:00N 69°39' E 018°58'0 0.0
2018-Feb-16 01:30N 69°39' E 018°58'0 0.0
2018-Feb-16 01:00N 69°39' E 018°58'0 0.0
2018-Feb-16 00:29N 69°39' E 018°58'0 0.0
2018-Feb-16 00:00N 69°39' E 018°58'0 0.0
2018-Feb-15 23:30N 69°39' E 018°58'0 0.0
2018-Feb-15 23:00N 69°39' E 018°58'0 0.0
2018-Feb-15 22:30N 69°39' E 018°58'0 0.0
2018-Feb-15 22:00N 69°39' E 018°58'0 0.0
2018-Feb-15 21:30N 69°39' E 018°58'0 0.0
2018-Feb-15 21:00N 69°39' E 018°58'0 0.0
2018-Feb-15 20:28N 69°39' E 018°58'2 3.4
2018-Feb-15 20:00N 69°40' E 019°01'4 7.1
2018-Feb-15 19:30N 69°44' E 019°03'2 3.1
2018-Feb-15 19:00N 69°45' E 019°04'2 4.1
2018-Feb-15 18:30N 69°47' E 019°08'2 4.3
2018-Feb-15 18:00N 69°47' E 019°14'2 4.2
2018-Feb-15 17:30N 69°48' E 019°20'2 3.6
2018-Feb-15 16:59N 69°49' E 019°25'1 2.8
2018-Feb-15 16:30N 69°49' E 019°28'2 3.3
2018-Feb-15 15:59N 69°49' E 019°33'1 2.9
2018-Feb-15 15:30N 69°50' E 019°37'2 3.3
2018-Feb-15 15:00N 69°51' E 019°41'2 3.6
2018-Feb-15 14:28N 69°52' E 019°46'2 3.3
2018-Feb-15 14:00N 69°53' E 019°49'2 3.4
2018-Feb-15 13:30N 69°54' E 019°53'2 3.2
2018-Feb-15 12:59N 69°55' E 019°57'2 3.3
2018-Feb-15 12:29N 69°56' E 020°01'2 4.5
2018-Feb-15 12:00N 69°57' E 020°06'2 4.5
2018-Feb-15 11:30N 69°58' E 020°11'3 6.2
2018-Feb-15 11:00N 69°60' E 020°19'3 6.4
2018-Feb-15 10:30N 70°01' E 020°28'2 4.7
2018-Feb-15 09:59N 70°01' E 020°35'3 5.7
2018-Feb-15 09:29N 70°02' E 020°43'3 6.1
2018-Feb-15 09:00N 70°03' E 020°51'3 6.8
2018-Feb-15 08:30N 70°03' E 021°01'1 3.0
2018-Feb-15 08:00N 70°02' E 020°59'0 0.0
2018-Feb-15 07:30N 70°02' E 020°59'0 0.0
2018-Feb-15 06:59N 70°02' E 020°59'0 0.0
2018-Feb-15 06:30N 70°02' E 020°59'2 3.5
2018-Feb-15 06:00N 70°04' E 021°01'4 8.2
2018-Feb-15 05:30N 70°03' E 020°49'4 8.6
2018-Feb-15 05:00N 70°02' E 020°37'5 8.9
2018-Feb-15 04:28N 70°00' E 020°24'4 8.8
2018-Feb-15 03:58N 69°59' E 020°12'4 8.9
2018-Feb-15 03:30N 69°56' E 020°02'4 9.0
2018-Feb-15 03:00N 69°53' E 019°52'4 8.7
2018-Feb-15 02:30N 69°50' E 019°42'4 8.7
2018-Feb-15 02:00N 69°49' E 019°30'4 8.8
2018-Feb-15 01:30N 69°48' E 019°18'5 8.9
2018-Feb-15 01:00N 69°46' E 019°06'4 8.4
2018-Feb-15 00:30N 69°42' E 019°03'4 8.3
2018-Feb-15 00:00N 69°38' E 018°57'4 8.6
2018-Feb-14 23:29N 69°35' E 018°50'4 9.2
2018-Feb-14 23:00N 69°33' E 018°38'4 8.7
2018-Feb-14 22:30N 69°31' E 018°26'4 8.5
2018-Feb-14 21:59N 69°30' E 018°14'4 7.7
2018-Feb-14 21:30N 69°27' E 018°07'4 8.4
2018-Feb-14 21:00N 69°23' E 018°05'4 7.6
2018-Feb-14 20:30N 69°20' E 018°01'4 7.7
2018-Feb-14 20:00N 69°16' E 017°58'4 7.5
2018-Feb-14 19:29N 69°12' E 018°01'4 7.6
2018-Feb-14 19:00N 69°09' E 017°54'4 8.3
2018-Feb-14 18:30N 69°08' E 017°43'4 8.3
2018-Feb-14 18:00N 69°07' E 017°32'  

Dump ship's entire track history